Aérodrome :
LOGIN :

S'inscrire | Disclaimer

   EN    FR    IT 

 










Légende :    VFR   VFR Marginal   IFR   IFR Intensif   IFR Très Intensif
Visi : 
Plafond : 
>= 8 km
>= 3000ft
5 à 8 km
1000 à 3000 ft
1500m à 5 km
500 à 1000 ft
800 à 1500m
200 à 500 ft
< 800m
< 200 ft
Symboles :   Orages  Brouillard  Fortes neiges  Fortes précipitations  Vent > 20 kt
SIGMETs :   Divers  Orages  Givrage  Turbulence  Onde Orograph.  Cendres Volcan.







- Altitude de l'aérodrome : 32 ft
- Code IATA : LKZ


EGUL - RAF Lakenheath

DERNIER METAR :
  • 192258Z AUTO 18013G18KT 9999 FEW021 15/15 A2947 RMK AO2 RAB56E57 SLP983

METARs EXPIRÉS :
  • 192254Z AUTO 17011KT 9999 CLR 15/15 A2947 RMK AO2 RAB2156E07RAB16E44DZB44E48RAB48 SLP983
  • 192225Z AUTO 17012KT 9999 -RA FEW004 FEW060 16/16 A2948 RMK AO2 RAB2156E07RAB16 SLP986
  • 192216Z AUTO 17008G16KT 9999 -RA FEW060 16/16 A2949 RMK AO2 RAB2156E07RAB16 SLP989
  • 192207Z AUTO 17010G16KT 9999 FEW060 16/16 A2949 RMK AO2 RAB2156E07 SLP989
  • 192156Z AUTO 17010KT 9999 CLR 16/16 A2949 RMK AO2 RAB2056E03DZB03E04RAB52 SLP989 P0000 T01590159
  • 192056Z AUTO 16011KT 9999 CLR 16/16 A2951 RMK AO2 RAB51 SLP996 P0000 60001 T01590159 57015
  • 192020Z AUTO 15007KT 9999 SCT018 16/16 A2952 RMK AO2 SLP000

TAF AMD TAF EGUL
Valide du 19 à 22h jusqu'au 21 à 02h UTC


192224Z 1922/2102 16012KT 9000 -RA SCT006 BKN080 620809 621701 QNH2943INS
TEMPO 1922/2002 BKN015
BECMG 2001/2002 18015G20KT 9999 NSW OVC018 620809 621701 QNH2941INS
TEMPO 2004/2009 BKN010
BECMG 2010/2011 26015G25KT 9999 SCT020 QNH2962INS
BECMG 2015/2016 22012KT 9999 BKN020 QNH2972INS
BECMG 2020/2021 18012G18KT 9000 -SHRA OVC015 620809 621701 QNH2965INS TX18/2014Z TN09/2006Z
Pas de NOTAMs connus pour ce terrain.
2 SIGMETs publiés pour la FIR London (EGTT) :
 
Turbulence forte
EGTT SIGMET 04 VALID 192330/200330 EGRR
EGTT LONDON FIR SEV TURB FCST WI N5000 W00015 - N5000 W00200 - N4928 W00500 - N5032 W00600 - N5040 E00128 - N5000 W00015 SFC/FL060 MOV E 15KT WKN=
Turbulence forte
EGTT SIGMET 03 VALID 192020/192330 EGRR
EGTT LONDON FIR SEV TURB FCST WI N5149 W00608 - N5024 W00401 - N5034 W00229 - N5000 W00200 - N4919 W00538 - N5053 W00720 - N5149 W00608 SFC/FL060 MOV E 20KT NC=



MET'MAP, la Météo Aéronautique d'un coup d'oeil ! - Copyright ORBIFLY Décembre 2007 - Disclaimer

ORBIFLY MET'MAP TEAM :

Programmation & Développement : Alexandra Zaïnal
Conception & Développement : Baudouin d'Aumeries
Co-Programmation & Développement : Marc-Olivier Méhu
Soutien technique & logistique : Manuel Goepfert

Contact : metmap@orbifly.com




SOURCES & CREDITS :

   NOAA